Time;durP1;ratioP1;P1;durP2;ratioP2;P2;SDS_P1;SDS_P2;PMS_P1;PMS_P2;Temp;Humidity;BMP_temperature;BMP_pressure;BME280_temperature;BME280_humidity;BME280_pressure;Samples;Min_cycle;Max_cycle;Signal;HPM_P1;HPM_P2
2021/09/09 00:02:18;;;;;;;13.00;5.28;;;436.10;2150.40;;;;;;5013931;28;20030;-79
2021/09/09 00:04:43;;;;;;;10.50;5.68;;;460.80;2176.00;;;;;;5014538;28;20109;-80
2021/09/09 00:07:09;;;;;;;13.65;5.50;;;460.90;2176.00;;;;;;5014169;28;20561;-79
2021/09/09 00:09:35;;;;;;;20.02;7.60;;;460.90;2176.00;;;;;;5014361;28;20026;-78
2021/09/09 00:12:01;;;;;;;25.67;7.03;;;435.90;2176.00;;;;;;5014102;28;20437;-78
2021/09/09 00:14:27;;;;;;;15.25;6.18;;;435.70;2201.60;;;;;;5014014;28;20044;-81
2021/09/09 00:16:53;;;;;;;14.45;5.53;;;435.90;2176.00;;;;;;5014365;28;20444;-82
2021/09/09 00:19:18;;;;;;;10.80;6.38;;;435.90;2176.00;;;;;;5014119;28;20030;-81
2021/09/09 00:21:44;;;;;;;10.52;5.40;;;435.60;2201.60;;;;;;5013928;28;20394;-81
2021/09/09 00:24:10;;;;;;;12.57;5.70;;;435.70;2201.60;;;;;;5014304;28;20030;-81
2021/09/09 00:26:36;;;;;;;11.23;5.63;;;435.80;2201.60;;;;;;5015116;28;20355;-80
2021/09/09 00:29:02;;;;;;;12.63;5.00;;;435.90;2176.00;;;;;;5013231;28;20038;-80
2021/09/09 00:31:28;;;;;;;17.10;7.00;;;435.50;2227.20;;;;;;5013733;28;20092;-81
2021/09/09 00:33:54;;;;;;;18.92;9.02;;;435.50;2227.20;;;;;;5015536;28;20382;-80
2021/09/09 00:36:19;;;;;;;16.92;9.20;;;435.60;2227.20;;;;;;5013664;28;20033;-81
2021/09/09 00:38:45;;;;;;;11.15;6.60;;;435.60;2252.80;;;;;;5013753;28;20756;-81
2021/09/09 00:41:11;;;;;;;10.32;5.30;;;435.20;2304.00;;;;;;5013820;28;20032;-81
2021/09/09 00:43:37;;;;;;;11.95;6.20;;;410.50;2304.00;;;;;;5013470;28;20378;-81
2021/09/09 00:46:03;;;;;;;12.05;5.25;;;435.30;2304.00;;;;;;5014129;28;20030;-82
2021/09/09 00:48:29;;;;;;;11.40;4.90;;;410.50;2304.00;;;;;;5013658;28;20425;-80
2021/09/09 00:50:54;;;;;;;11.70;5.10;;;435.30;2304.00;;;;;;5013498;28;20068;-79
2021/09/09 00:53:21;;;;;;;10.50;4.70;;;435.30;2304.00;;;;;;5013626;28;20026;-79
2021/09/09 00:55:50;;;;;;;9.80;4.43;;;435.20;2304.00;;;;;;5014605;28;20025;-80
2021/09/09 00:58:16;;;;;;;11.05;4.07;;;410.40;2329.60;;;;;;5012595;28;20064;-82
2021/09/09 01:00:42;;;;;;;12.85;5.57;;;410.30;2329.60;;;;;;5014012;28;20077;-81
2021/09/09 01:03:08;;;;;;;9.07;4.60;;;410.30;2355.20;;;;;;5013199;28;20097;-82
2021/09/09 01:05:35;;;;;;;11.77;4.63;;;410.40;2355.20;;;;;;5013429;28;20555;-81
2021/09/09 01:08:02;;;;;;;13.23;4.93;;;435.20;2355.20;;;;;;5013293;28;20065;-83
2021/09/09 01:10:28;;;;;;;11.23;4.47;;;435.20;2355.20;;;;;;5013047;28;20033;-80
2021/09/09 01:12:53;;;;;;;12.25;4.70;;;410.50;2355.20;;;;;;5014256;28;20021;-81
2021/09/09 01:15:21;;;;;;;6.70;4.07;;;435.30;2355.20;;;;;;5013274;28;20064;-82
2021/09/09 01:17:47;;;;;;;8.88;4.82;;;435.20;2329.60;;;;;;5012940;28;20038;-82
2021/09/09 01:20:13;;;;;;;14.60;5.20;;;435.20;2329.60;;;;;;5013519;28;20033;-80
2021/09/09 01:22:41;;;;;;;11.13;5.07;;;435.20;2329.60;;;;;;5013400;28;20045;-82
2021/09/09 01:25:08;;;;;;;7.72;4.40;;;435.30;2355.20;;;;;;5012851;28;20030;-81
2021/09/09 01:27:34;;;;;;;12.15;4.85;;;410.50;2355.20;;;;;;5013006;28;20030;-81
2021/09/09 01:30:00;;;;;;;9.65;4.72;;;410.50;2355.20;;;;;;5012965;28;20450;-82
2021/09/09 01:32:26;;;;;;;9.70;4.95;;;410.40;2355.20;;;;;;5014100;28;20105;-80
2021/09/09 01:34:52;;;;;;;10.95;5.38;;;410.50;2355.20;;;;;;5009084;28;20120;-81
2021/09/09 01:37:18;;;;;;;12.13;4.97;;;410.50;2355.20;;;;;;5013153;28;20046;-81
2021/09/09 01:39:47;;;;;;;13.95;4.90;;;410.50;2355.20;;;;;;5018747;28;20022;-80
2021/09/09 01:42:13;;;;;;;12.15;4.70;;;410.20;2355.20;;;;;;5014771;28;20033;-81
2021/09/09 01:44:39;;;;;;;8.43;4.70;;;410.40;2355.20;;;;;;5014393;28;20026;-82
2021/09/09 01:47:05;;;;;;;11.02;5.07;;;410.50;2355.20;;;;;;5012877;28;20121;-83
2021/09/09 01:49:31;;;;;;;12.32;5.45;;;410.20;2355.20;;;;;;5014296;28;20053;-81
2021/09/09 01:51:57;;;;;;;11.50;5.93;;;410.10;2355.20;;;;;;5013092;28;20026;-80
2021/09/09 01:54:23;;;;;;;8.43;4.60;;;410.30;2355.20;;;;;;5012786;28;20030;-82
2021/09/09 01:56:49;;;;;;;10.85;5.05;;;410.50;2355.20;;;;;;5012844;28;20030;-81
2021/09/09 01:59:15;;;;;;;11.25;4.60;;;435.20;2355.20;;;;;;5013852;28;20030;-82
2021/09/09 02:01:41;;;;;;;10.10;4.93;;;410.40;2355.20;;;;;;5012791;28;20478;-81
2021/09/09 02:04:07;;;;;;;10.63;4.90;;;410.40;2355.20;;;;;;5012977;28;20030;-82
2021/09/09 02:06:33;;;;;;;12.65;5.38;;;410.40;2355.20;;;;;;5012648;28;20033;-83
2021/09/09 02:09:00;;;;;;;13.82;7.53;;;410.20;2355.20;;;;;;5015570;28;20423;-81
2021/09/09 02:11:26;;;;;;;18.13;9.27;;;410.00;2355.20;;;;;;5018397;28;20032;-82
2021/09/09 02:13:52;;;;;;;18.25;9.30;;;409.80;2355.20;;;;;;5016341;28;20397;-82
2021/09/09 02:16:19;;;;;;;15.50;7.55;;;410.00;2355.20;;;;;;5016483;28;20113;-83
2021/09/09 02:18:44;;;;;;;11.60;6.60;;;410.00;2355.20;;;;;;5016721;28;20062;-80
2021/09/09 02:21:11;;;;;;;13.75;6.45;;;410.20;2355.20;;;;;;5017299;28;20065;-82
2021/09/09 02:23:37;;;;;;;11.02;6.63;;;410.20;2355.20;;;;;;5016191;28;20029;-82
2021/09/09 02:26:04;;;;;;;9.93;5.20;;;410.20;2355.20;;;;;;5017339;28;20033;-82
2021/09/09 02:28:30;;;;;;;9.63;4.93;;;409.80;2355.20;;;;;;5017479;28;20034;-81
2021/09/09 02:30:56;;;;;;;10.02;6.03;;;409.80;2355.20;;;;;;5016266;28;20042;-81
2021/09/09 02:33:22;;;;;;;10.23;5.38;;;409.80;2355.20;;;;;;5016591;28;20022;-82
2021/09/09 02:35:48;;;;;;;8.15;4.57;;;409.90;2355.20;;;;;;5016070;28;20537;-80
2021/09/09 02:38:13;;;;;;;12.82;4.55;;;409.90;2355.20;;;;;;5016191;28;20045;-81
2021/09/09 02:40:39;;;;;;;9.70;4.70;;;410.00;2355.20;;;;;;5016065;28;20029;-83
2021/09/09 02:43:06;;;;;;;15.32;5.50;;;410.30;2355.20;;;;;;5015916;28;20030;-83
2021/09/09 02:45:32;;;;;;;9.70;5.10;;;409.70;2355.20;;;;;;5016301;28;20054;-81
2021/09/09 02:47:58;;;;;;;11.20;5.13;;;409.90;2355.20;;;;;;5015937;28;20080;-81
2021/09/09 02:50:24;;;;;;;12.38;4.68;;;409.80;2355.20;;;;;;5015227;28;20474;-82
2021/09/09 02:52:49;;;;;;;13.43;5.15;;;409.90;2355.20;;;;;;5015604;28;20103;-82
2021/09/09 02:55:16;;;;;;;11.07;5.40;;;409.90;2355.20;;;;;;5015440;28;20022;-81
2021/09/09 02:57:41;;;;;;;12.32;5.80;;;384.90;2329.60;;;;;;5015585;28;20034;-83
2021/09/09 03:00:09;;;;;;;14.75;6.53;;;384.90;2329.60;;;;;;5016090;28;20061;-82
2021/09/09 03:02:34;;;;;;;14.50;7.53;;;384.80;2329.60;;;;;;5015451;28;20022;-82
2021/09/09 03:05:00;;;;;;;11.02;5.97;;;409.60;2355.20;;;;;;5015943;28;20033;-81
2021/09/09 03:07:26;;;;;;;14.27;7.15;;;409.70;2355.20;;;;;;5016165;28;20030;-81
2021/09/09 03:09:52;;;;;;;12.02;6.97;;;409.80;2355.20;;;;;;5016845;28;20026;-82
2021/09/09 03:12:18;;;;;;;10.73;6.45;;;409.60;2355.20;;;;;;5016930;28;20105;-81
2021/09/09 03:14:44;;;;;;;12.20;5.95;;;409.80;2355.20;;;;;;5015840;28;20022;-82
2021/09/09 03:17:11;;;;;;;12.38;5.35;;;409.80;2355.20;;;;;;5015189;28;20084;-81
2021/09/09 03:19:38;;;;;;;11.57;6.05;;;409.90;2355.20;;;;;;5015582;28;20057;-81
2021/09/09 03:22:04;;;;;;;11.18;5.45;;;409.60;2355.20;;;;;;5015657;28;20059;-80
2021/09/09 03:24:30;;;;;;;10.38;5.03;;;409.60;2355.20;;;;;;5019741;28;20084;-82
2021/09/09 03:26:56;;;;;;;12.60;5.13;;;409.60;2355.20;;;;;;5015195;28;20022;-82
2021/09/09 03:29:22;;;;;;;10.75;4.75;;;409.60;2355.20;;;;;;5014984;28;20482;-82
2021/09/09 03:31:48;;;;;;;9.77;5.13;;;409.70;2355.20;;;;;;5014902;28;20022;-81
2021/09/09 03:34:14;;;;;;;11.30;6.45;;;409.60;2355.20;;;;;;5015009;28;20458;-81
2021/09/09 03:36:39;;;;;;;13.95;7.03;;;384.70;2329.60;;;;;;5015041;28;20034;-83
2021/09/09 03:39:07;;;;;;;12.40;6.43;;;384.60;2329.60;;;;;;4998270;28;20104;-81
2021/09/09 03:41:33;;;;;;;13.63;5.45;;;384.70;2329.60;;;;;;5014877;28;20026;-82
2021/09/09 03:43:59;;;;;;;12.57;4.75;;;384.60;2329.60;;;;;;5014887;28;20030;-83
2021/09/09 03:46:25;;;;;;;8.27;4.70;;;384.90;2329.60;;;;;;5014524;28;20033;-82
2021/09/09 03:48:51;;;;;;;11.98;5.43;;;384.90;2329.60;;;;;;5014810;28;20030;-82
2021/09/09 03:51:16;;;;;;;9.35;4.43;;;384.60;2329.60;;;;;;5014590;28;20025;-82
2021/09/09 03:53:42;;;;;;;13.43;5.00;;;384.70;2329.60;;;;;;5014390;28;20396;-80
2021/09/09 03:56:08;;;;;;;11.18;4.90;;;384.70;2329.60;;;;;;5014656;28;20099;-80
2021/09/09 03:58:34;;;;;;;11.90;5.18;;;384.90;2329.60;;;;;;5014393;28;20462;-81
2021/09/09 04:01:00;;;;;;;11.90;4.90;;;384.80;2329.60;;;;;;5014566;28;20030;-80
2021/09/09 04:03:26;;;;;;;9.10;5.13;;;384.90;2329.60;;;;;;5015773;28;20022;-80
2021/09/09 04:05:52;;;;;;;10.50;5.32;;;384.60;2329.60;;;;;;5014251;28;20036;-81
2021/09/09 04:08:17;;;;;;;9.85;5.95;;;384.80;2329.60;;;;;;5014475;28;20466;-79
2021/09/09 04:10:43;;;;;;;12.60;6.75;;;384.80;2329.60;;;;;;5014686;28;20026;-83
2021/09/09 04:13:09;;;;;;;10.73;5.82;;;384.80;2329.60;;;;;;5014099;28;20033;-80
2021/09/09 04:15:35;;;;;;;11.18;5.80;;;409.60;2355.20;;;;;;5014608;28;20084;-80
2021/09/09 04:18:01;;;;;;;9.02;5.32;;;409.60;2355.20;;;;;;5014235;28;20137;-81
2021/09/09 04:20:27;;;;;;;12.60;5.43;;;409.60;2355.20;;;;;;5013940;28;20037;-81
2021/09/09 04:22:52;;;;;;;10.65;5.25;;;409.70;2355.20;;;;;;5014115;28;20084;-81
2021/09/09 04:25:18;;;;;;;14.07;5.72;;;409.80;2355.20;;;;;;5015147;28;20036;-79
2021/09/09 04:27:44;;;;;;;10.75;5.13;;;409.90;2355.20;;;;;;5013934;28;20458;-82
2021/09/09 04:30:10;;;;;;;10.88;5.47;;;409.70;2355.20;;;;;;5013774;28;20137;-82
2021/09/09 04:32:36;;;;;;;11.80;5.93;;;409.90;2355.20;;;;;;5013552;28;20025;-82
2021/09/09 04:35:02;;;;;;;11.32;6.18;;;409.60;2355.20;;;;;;5013576;28;20100;-81
2021/09/09 04:37:28;;;;;;;13.25;5.32;;;409.70;2355.20;;;;;;5013818;28;20477;-80
2021/09/09 04:39:54;;;;;;;13.80;5.93;;;409.70;2355.20;;;;;;5013609;28;20022;-82
2021/09/09 04:42:20;;;;;;;8.95;5.30;;;384.80;2329.60;;;;;;5013593;28;20112;-82
2021/09/09 04:44:45;;;;;;;13.55;5.78;;;384.80;2329.60;;;;;;5013806;28;20034;-83
2021/09/09 04:47:11;;;;;;;12.35;5.47;;;409.60;2355.20;;;;;;5014424;28;20025;-81
2021/09/09 04:49:37;;;;;;;19.60;6.85;;;409.70;2355.20;;;;;;5013969;28;20022;-82
2021/09/09 04:52:03;;;;;;;14.93;6.70;;;384.90;2329.60;;;;;;5013745;28;20030;-80
2021/09/09 04:54:30;;;;;;;14.10;5.63;;;410.20;2355.20;;;;;;5013652;28;20037;-81
2021/09/09 04:56:55;;;;;;;11.43;5.28;;;409.70;2355.20;;;;;;5013763;28;20378;-81
2021/09/09 04:59:21;;;;;;;14.02;5.15;;;409.60;2355.20;;;;;;5014719;28;20034;-82
2021/09/09 05:01:47;;;;;;;14.60;5.82;;;409.70;2355.20;;;;;;5013461;28;20033;-83
2021/09/09 05:04:13;;;;;;;12.55;6.07;;;409.80;2355.20;;;;;;5013597;28;20022;-82
2021/09/09 05:06:38;;;;;;;16.13;5.72;;;409.90;2355.20;;;;;;5013629;28;20105;-82
2021/09/09 05:09:04;;;;;;;13.43;5.63;;;409.90;2355.20;;;;;;5013591;28;20030;-81
2021/09/09 05:11:30;;;;;;;12.02;5.57;;;409.90;2355.20;;;;;;5013818;28;20386;-81
2021/09/09 05:13:56;;;;;;;19.00;6.38;;;409.80;2355.20;;;;;;5013696;28;20018;-82
2021/09/09 05:16:22;;;;;;;13.73;5.50;;;410.00;2355.20;;;;;;5014678;28;20454;-82
2021/09/09 05:18:47;;;;;;;13.45;6.32;;;410.00;2355.20;;;;;;5013331;28;20064;-81
2021/09/09 05:21:13;;;;;;;12.48;6.80;;;410.00;2355.20;;;;;;5013603;28;20117;-79
2021/09/09 05:23:39;;;;;;;17.83;7.72;;;409.70;2355.20;;;;;;5013303;28;20026;-83
2021/09/09 05:26:05;;;;;;;12.88;6.80;;;409.60;2355.20;;;;;;5013327;28;20032;-81
2021/09/09 05:28:31;;;;;;;15.70;7.18;;;384.90;2329.60;;;;;;5013483;28;20087;-82
2021/09/09 05:30:57;;;;;;;20.30;8.02;;;409.70;2355.20;;;;;;5012524;28;20050;-80
2021/09/09 05:33:22;;;;;;;13.52;6.88;;;410.00;2355.20;;;;;;5013261;28;20034;-83
2021/09/09 05:35:48;;;;;;;13.68;7.15;;;409.70;2355.20;;;;;;5013416;28;20030;-84
2021/09/09 05:38:14;;;;;;;13.00;6.05;;;409.90;2355.20;;;;;;5013122;28;20129;-82
2021/09/09 05:40:40;;;;;;;15.25;7.35;;;410.00;2355.20;;;;;;5013305;28;20121;-83
2021/09/09 05:43:06;;;;;;;13.13;8.13;;;409.70;2355.20;;;;;;5012389;28;20116;-84
2021/09/09 05:45:32;;;;;;;17.98;7.13;;;409.90;2355.20;;;;;;5014301;28;20030;-84
2021/09/09 05:47:58;;;;;;;14.48;6.75;;;409.90;2355.20;;;;;;5013208;28;20535;-85
2021/09/09 05:50:24;;;;;;;10.43;6.35;;;409.90;2355.20;;;;;;5014707;28;20462;-84
2021/09/09 05:52:49;;;;;;;11.30;6.50;;;410.10;2355.20;;;;;;5013348;28;20458;-83
2021/09/09 05:55:15;;;;;;;12.90;7.25;;;410.20;2355.20;;;;;;5013080;28;20026;-83
2021/09/09 05:57:41;;;;;;;14.70;7.20;;;410.30;2355.20;;;;;;5012927;28;20034;-83
2021/09/09 06:00:10;;;;;;;18.08;7.18;;;410.10;2355.20;;;;;;5013566;28;20037;-83
2021/09/09 06:02:45;;;;;;;12.18;6.50;;;410.50;2355.20;;;;;;5013337;28;20030;-81
2021/09/09 06:05:15;;;;;;;17.73;8.65;;;435.30;2355.20;;;;;;5012967;28;20034;-80
2021/09/09 06:07:41;;;;;;;23.45;10.05;;;435.20;2355.20;;;;;;5013425;28;20358;-82
2021/09/09 06:10:13;;;;;;;19.40;8.38;;;435.30;2355.20;;;;;;5013051;28;20080;-82
2021/09/09 06:12:38;;;;;;;18.63;8.18;;;435.40;2355.20;;;;;;5012905;28;20022;-82
2021/09/09 06:15:05;;;;;;;15.45;8.23;;;435.40;2355.20;;;;;;5013078;28;20029;-82
2021/09/09 06:17:31;;;;;;;18.67;9.13;;;435.50;2355.20;;;;;;5012697;28;20026;-81
2021/09/09 06:19:57;;;;;;;16.15;7.80;;;435.50;2355.20;;;;;;5012082;28;20026;-79
2021/09/09 06:22:23;;;;;;;18.55;7.95;;;435.60;2355.20;;;;;;5012559;28;20425;-81
2021/09/09 06:24:49;;;;;;;12.98;7.53;;;435.70;2355.20;;;;;;5019531;28;20046;-80
2021/09/09 06:27:15;;;;;;;12.95;6.47;;;435.80;2355.20;;;;;;5014077;28;20065;-81
2021/09/09 06:29:40;;;;;;;11.50;5.88;;;436.00;2355.20;;;;;;5012582;28;20402;-80
2021/09/09 06:32:07;;;;;;;11.80;7.05;;;436.10;2355.20;;;;;;5012401;28;20060;-79
2021/09/09 06:34:32;;;;;;;21.85;7.70;;;460.90;2380.80;;;;;;5012237;28;20030;-80
2021/09/09 06:36:59;;;;;;;15.13;6.80;;;460.90;2380.80;;;;;;5012053;28;20029;-80
2021/09/09 06:39:24;;;;;;;15.48;7.47;;;461.00;2380.80;;;;;;5011759;28;20083;-82
2021/09/09 06:41:50;;;;;;;14.10;8.18;;;461.10;2380.80;;;;;;5012365;28;20113;-81
2021/09/09 06:44:16;;;;;;;22.40;9.48;;;461.20;2380.80;;;;;;5012251;28;20072;-81
2021/09/09 06:46:43;;;;;;;21.95;12.88;;;461.30;2380.80;;;;;;5011994;28;20080;-80
2021/09/09 06:49:09;;;;;;;21.88;12.77;;;461.40;2380.80;;;;;;5011783;28;20117;-81
2021/09/09 06:51:36;;;;;;;22.88;12.85;;;461.40;2380.80;;;;;;5012290;28;20030;-80
2021/09/09 06:54:02;;;;;;;22.40;11.65;;;461.50;2380.80;;;;;;5012214;28;20030;-79
2021/09/09 06:56:28;;;;;;;22.88;10.70;;;461.70;2380.80;;;;;;5015890;28;20030;-80
2021/09/09 06:58:54;;;;;;;22.60;10.63;;;486.50;2380.80;;;;;;5015924;28;20045;-80
2021/09/09 07:01:20;;;;;;;24.65;11.52;;;486.60;2380.80;;;;;;5015514;28;20355;-79
2021/09/09 07:03:46;;;;;;;20.70;9.63;;;486.70;2380.80;;;;;;5017142;28;20030;-81
2021/09/09 07:06:13;;;;;;;13.40;7.53;;;486.90;2380.80;;;;;;5015797;28;20026;-80
2021/09/09 07:08:39;;;;;;;16.02;6.78;;;487.10;2380.80;;;;;;5015824;28;20030;-79
2021/09/09 07:11:05;;;;;;;13.35;6.20;;;487.20;2380.80;;;;;;5015803;28;20076;-80
2021/09/09 07:13:31;;;;;;;9.90;5.68;;;487.30;2380.80;;;;;;5015698;28;20037;-79
2021/09/09 07:15:58;;;;;;;12.85;7.40;;;512.10;2380.80;;;;;;5015424;28;20087;-78
2021/09/09 07:18:26;;;;;;;15.30;7.55;;;512.20;2380.80;;;;;;5016056;28;20041;-79
2021/09/09 07:20:52;;;;;;;11.43;6.32;;;512.40;2380.80;;;;;;5015661;28;20390;-79
2021/09/09 07:23:18;;;;;;;10.43;6.10;;;512.50;2380.80;;;;;;5015487;28;20022;-79
2021/09/09 07:25:44;;;;;;;13.35;6.38;;;512.60;2380.80;;;;;;5015537;28;20030;-79
2021/09/09 07:28:11;;;;;;;11.40;4.70;;;512.80;2380.80;;;;;;5016356;28;20033;-78
2021/09/09 07:30:37;;;;;;;12.80;5.40;;;537.60;2406.40;;;;;;5015557;28;20478;-79
2021/09/09 07:33:04;;;;;;;10.77;5.45;;;537.60;2406.40;;;;;;5015478;28;20026;-78
2021/09/09 07:35:30;;;;;;;9.70;5.30;;;512.90;2380.80;;;;;;5015160;28;20030;-77
2021/09/09 07:37:56;;;;;;;5.97;3.63;;;537.70;2406.40;;;;;;5015547;28;20088;-78
2021/09/09 07:40:22;;;;;;;9.02;4.50;;;537.80;2406.40;;;;;;5015646;28;20457;-79
2021/09/09 07:42:48;;;;;;;8.80;4.20;;;537.90;2406.40;;;;;;5014876;28;20033;-78
2021/09/09 07:45:13;;;;;;;8.90;4.05;;;537.90;2406.40;;;;;;5015104;28;20113;-78
2021/09/09 07:47:39;;;;;;;6.65;4.40;;;537.80;2406.40;;;;;;5016329;28;20480;-79
2021/09/09 07:50:10;;;;;;;9.32;5.25;;;537.90;2406.40;;;;;;5016166;28;20033;-78
2021/09/09 07:52:37;;;;;;;6.90;4.18;;;538.00;2406.40;;;;;;5015323;28;20453;-77
2021/09/09 07:55:04;;;;;;;7.22;3.53;;;538.10;2406.40;;;;;;5015133;28;20549;-79
2021/09/09 07:57:30;;;;;;;6.10;3.17;;;538.10;2380.80;;;;;;5016124;28;20346;-78
2021/09/09 07:59:55;;;;;;;6.50;3.35;;;538.20;2380.80;;;;;;5015912;28;20034;-78
2021/09/09 08:02:21;;;;;;;6.72;3.50;;;538.20;2329.60;;;;;;5016820;28;20065;-79
2021/09/09 08:04:47;;;;;;;8.30;3.63;;;538.20;2329.60;;;;;;5015992;28;20022;-76
2021/09/09 08:07:13;;;;;;;8.40;3.20;;;538.20;2329.60;;;;;;5015833;28;20030;-77
2021/09/09 08:09:39;;;;;;;6.95;3.15;;;538.20;2304.00;;;;;;5014932;28;20116;-78
2021/09/09 08:12:06;;;;;;;8.50;3.70;;;538.20;2278.40;;;;;;5015724;28;20062;-78
2021/09/09 08:14:32;;;;;;;7.22;3.35;;;538.40;2304.00;;;;;;5014966;28;20021;-78
2021/09/09 08:16:58;;;;;;;5.25;2.95;;;538.50;2278.40;;;;;;5014457;28;20029;-79
2021/09/09 08:19:24;;;;;;;7.75;4.03;;;563.20;2329.60;;;;;;5014329;28;20056;-80
2021/09/09 08:21:50;;;;;;;9.45;4.60;;;563.40;2278.40;;;;;;5014917;28;20462;-79
2021/09/09 08:24:16;;;;;;;7.97;3.95;;;563.60;2252.80;;;;;;5014244;28;20060;-81
2021/09/09 08:26:41;;;;;;;9.40;3.95;;;563.80;2227.20;;;;;;5015225;28;20117;-80
2021/09/09 08:29:07;;;;;;;9.13;4.68;;;563.80;2201.60;;;;;;5014840;28;20033;-82
2021/09/09 08:31:33;;;;;;;13.38;5.05;;;563.90;2201.60;;;;;;5014809;28;20116;-80
2021/09/09 08:33:59;;;;;;;9.93;4.80;;;563.80;2201.60;;;;;;5014420;28;20041;-80
2021/09/09 08:36:25;;;;;;;10.00;4.05;;;563.80;2201.60;;;;;;5014364;28;20080;-81
2021/09/09 08:38:52;;;;;;;8.63;4.10;;;563.80;2227.20;;;;;;5014138;28;20037;-79
2021/09/09 08:41:18;;;;;;;8.02;3.63;;;563.80;2201.60;;;;;;5015243;28;20446;-80
2021/09/09 08:43:45;;;;;;;10.95;4.90;;;563.90;2150.40;;;;;;5014192;28;20061;-81
2021/09/09 08:46:12;;;;;;;12.55;5.10;;;588.80;2176.00;;;;;;5014183;28;20034;-81
2021/09/09 08:48:43;;;;;;;11.18;3.95;;;589.10;2099.20;;;;;;5013810;28;20121;-81
2021/09/09 08:51:09;;;;;;;7.97;4.13;;;589.10;2073.60;;;;;;5014190;28;20431;-80
2021/09/09 08:53:36;;;;;;;5.47;3.83;;;589.20;2048.00;;;;;;5014176;28;20034;-79
2021/09/09 08:56:03;;;;;;;8.85;4.13;;;589.10;2073.60;;;;;;5014003;28;20026;-79
2021/09/09 08:58:28;;;;;;;7.70;3.70;;;589.10;2022.40;;;;;;5013924;28;20500;-79
2021/09/09 09:01:11;;;;;;;10.50;3.33;;;589.00;2022.40;;;;;;5015726;28;20065;-79
2021/09/09 09:03:48;;;;;;;7.57;4.47;;;589.00;2022.40;;;;;;5013844;28;20545;-76
2021/09/09 09:06:24;;;;;;;11.60;5.13;;;588.90;2048.00;;;;;;5013996;28;20034;-79
2021/09/09 09:08:59;;;;;;;9.25;4.47;;;589.10;2048.00;;;;;;5013819;28;20069;-79
2021/09/09 09:11:33;;;;;;;13.10;6.82;;;589.20;2022.40;;;;;;5013504;28;20466;-77
2021/09/09 09:14:00;;;;;;;8.52;4.82;;;589.40;2048.00;;;;;;5013557;28;20033;-78
2021/09/09 09:16:28;;;;;;;8.27;5.13;;;589.50;2022.40;;;;;;5013251;28;20065;-77
2021/09/09 09:18:57;;;;;;;14.13;7.78;;;589.60;1996.80;;;;;;5012110;28;20041;-78
2021/09/09 09:21:23;;;;;;;12.75;5.80;;;589.70;1996.80;;;;;;5013337;28;20033;-79
2021/09/09 09:23:52;;;;;;;11.77;5.22;;;614.50;1971.20;;;;;;5013006;28;20030;-77
2021/09/09 09:26:18;;;;;;;7.28;3.70;;;614.40;1945.60;;;;;;5013644;28;20446;-77
2021/09/09 09:28:52;;;;;;;11.55;7.68;;;614.40;1920.00;;;;;;5013007;28;20041;-77
2021/09/09 09:31:23;;;;;;;12.07;6.43;;;614.50;1894.40;;;;;;5013330;28;20049;-79
2021/09/09 09:33:59;;;;;;;11.93;6.47;;;614.60;1920.00;;;;;;5014795;28;20018;-77
2021/09/09 09:36:39;;;;;;;13.35;5.72;;;614.80;1868.80;;;;;;5014596;28;20036;-77
2021/09/09 09:39:13;;;;;;;13.45;5.93;;;614.90;1868.80;;;;;;5014003;28;20417;-77
2021/09/09 09:41:41;;;;;;;11.70;6.55;;;614.90;1894.40;;;;;;5013337;28;20033;-78
2021/09/09 09:44:09;;;;;;;13.13;5.10;;;614.80;1868.80;;;;;;5012076;28;20373;-78
2021/09/09 09:46:40;;;;;;;14.25;6.32;;;614.80;1894.40;;;;;;5012353;28;20022;-78
2021/09/09 09:49:18;;;;;;;10.93;3.95;;;614.70;1894.40;;;;;;5014094;28;20493;-78
2021/09/09 09:51:46;;;;;;;10.18;3.97;;;614.70;1894.40;;;;;;4998720;28;20497;-77
2021/09/09 09:54:14;;;;;;;7.60;3.38;;;614.60;1868.80;;;;;;5015024;28;20033;-78
2021/09/09 09:56:41;;;;;;;10.80;4.97;;;614.50;1843.20;;;;;;5013097;28;20121;-77
2021/09/09 09:59:07;;;;;;;7.97;4.55;;;614.70;1894.40;;;;;;5012368;28;20381;-78
2021/09/09 10:01:34;;;;;;;7.05;3.42;;;614.70;1894.40;;;;;;5014581;28;20025;-78
2021/09/09 10:04:06;;;;;;;10.70;5.30;;;614.60;1843.20;;;;;;5013077;28;20034;-77
2021/09/09 10:06:33;;;;;;;12.85;4.13;;;614.70;1868.80;;;;;;5012805;28;20025;-79
2021/09/09 10:09:00;;;;;;;10.73;4.28;;;614.70;1894.40;;;;;;5015038;28;20058;-77
2021/09/09 10:11:27;;;;;;;15.40;5.78;;;614.60;1894.40;;;;;;5013329;28;20088;-78
2021/09/09 10:13:54;;;;;;;7.57;4.40;;;614.70;1894.40;;;;;;5013612;28;20030;-78
2021/09/09 10:16:26;;;;;;;5.88;4.22;;;614.70;1894.40;;;;;;5014312;28;20063;-80
2021/09/09 10:18:53;;;;;;;8.02;3.65;;;615.10;1843.20;;;;;;5015263;28;20030;-80
2021/09/09 10:21:43;;;;;;;16.45;7.57;;;640.10;1843.20;;;;;;5018821;28;20073;-79
2021/09/09 10:24:14;;;;;;;14.13;6.47;;;640.50;1817.60;;;;;;5015508;28;20025;-79
2021/09/09 10:26:41;;;;;;;14.90;4.63;;;640.70;1766.40;;;;;;5012274;28;20033;-82
2021/09/09 10:29:09;;;;;;;8.43;5.28;;;640.90;1740.80;;;;;;5013424;28;20118;-81
2021/09/09 10:31:41;;;;;;;11.93;7.80;;;640.70;1740.80;;;;;;5019647;28;20485;-81
2021/09/09 10:34:28;;;;;;;10.30;3.70;;;640.50;1766.40;;;;;;5017478;28;20057;-77
2021/09/09 10:36:54;;;;;;;9.80;5.18;;;640.40;1740.80;;;;;;5018838;28;20030;-78
2021/09/09 10:39:41;;;;;;;12.20;4.70;;;640.60;1740.80;;;;;;5017327;28;20038;-79
2021/09/09 10:42:35;;;;;;;12.20;4.43;;;640.30;1715.20;;;;;;5016952;28;20022;-79
2021/09/09 10:45:02;;;;;;;11.38;5.35;;;640.60;1715.20;;;;;;5018019;28;20477;-79
2021/09/09 10:47:29;;;;;;;11.07;5.78;;;640.50;1740.80;;;;;;5020135;28;20026;-78
2021/09/09 10:50:05;;;;;;;13.95;4.60;;;665.60;1740.80;;;;;;5023352;28;20018;-78
2021/09/09 10:52:53;;;;;;;8.00;4.40;;;665.70;1689.60;;;;;;5023134;28;20064;-79
2021/09/09 10:55:25;;;;;;;8.40;4.05;;;666.20;1664.00;;;;;;5022271;28;20032;-76
2021/09/09 10:58:20;;;;;;;7.72;3.70;;;666.10;1638.40;;;;;;5020838;28;20033;-78
2021/09/09 11:01:06;;;;;;;6.43;2.95;;;666.20;1638.40;;;;;;5023816;28;20048;-80
2021/09/09 11:03:44;;;;;;;8.73;2.85;;;666.50;1638.40;;;;;;5023094;28;20057;-78
2021/09/09 11:06:19;;;;;;;11.05;6.07;;;691.40;1587.20;;;;;;5028295;28;20021;-78
2021/09/09 11:08:47;;;;;;;8.30;4.75;;;691.50;1587.20;;;;;;5024606;28;20068;-78
2021/09/09 11:11:15;;;;;;;8.13;3.50;;;691.20;1587.20;;;;;;5023900;28;20026;-78
2021/09/09 11:14:11;;;;;;;8.13;4.13;;;666.40;1612.80;;;;;;5023001;28;20030;-78
2021/09/09 11:16:38;;;;;;;10.32;4.55;;;666.20;1638.40;;;;;;5053590;28;20038;-78
2021/09/09 11:19:07;;;;;;;11.10;5.10;;;665.80;1638.40;;;;;;5023915;28;20049;-78
2021/09/09 11:21:36;;;;;;;10.25;4.47;;;665.90;1638.40;;;;;;5023974;28;20053;-78
2021/09/09 11:24:10;;;;;;;6.90;3.78;;;665.90;1638.40;;;;;;5020678;28;20025;-79
2021/09/09 11:26:38;;;;;;;9.13;4.75;;;666.10;1638.40;;;;;;5021449;28;20376;-78
2021/09/09 11:29:05;;;;;;;9.63;3.75;;;666.30;1638.40;;;;;;5021693;28;20034;-79
2021/09/09 11:31:33;;;;;;;13.13;3.72;;;666.20;1612.80;;;;;;5024766;28;20022;-78
2021/09/09 11:34:06;;;;;;;12.65;4.47;;;666.30;1612.80;;;;;;5022897;28;20120;-77
2021/09/09 11:36:34;;;;;;;8.02;4.00;;;666.20;1638.40;;;;;;5019376;28;20208;-79
2021/09/09 11:39:04;;;;;;;8.63;3.97;;;666.30;1638.40;;;;;;5026311;28;20045;-77
2021/09/09 11:41:32;;;;;;;11.18;4.30;;;691.40;1612.80;;;;;;5033626;28;20040;-78
2021/09/09 11:44:00;;;;;;;10.32;5.13;;;691.60;1587.20;;;;;;5036796;28;20025;-78
2021/09/09 11:46:29;;;;;;;12.95;5.20;;;691.60;1561.60;;;;;;5037600;28;20022;-77
2021/09/09 11:49:22;;;;;;;8.25;3.70;;;691.80;1587.20;;;;;;5038388;28;20061;-76
2021/09/09 11:51:56;;;;;;;9.20;3.85;;;691.30;1612.80;;;;;;5030983;28;20068;-76
2021/09/09 11:54:29;;;;;;;9.10;3.53;;;666.50;1612.80;;;;;;5030972;28;20026;-76
2021/09/09 11:57:06;;;;;;;9.95;3.28;;;666.30;1638.40;;;;;;5031514;28;20026;-74
2021/09/09 11:59:33;;;;;;;10.13;4.72;;;666.30;1638.40;;;;;;5029307;28;20034;-75
2021/09/09 12:02:07;;;;;;;7.22;3.60;;;691.30;1612.80;;;;;;5029330;28;20022;-75
2021/09/09 12:04:41;;;;;;;8.90;4.38;;;691.70;1612.80;;;;;;5031865;28;20117;-78
2021/09/09 12:07:09;;;;;;;9.90;3.90;;;691.90;1587.20;;;;;;5034526;28;20017;-76
2021/09/09 12:09:38;;;;;;;10.25;3.33;;;716.80;1587.20;;;;;;5039249;28;20030;-76
2021/09/09 12:12:10;;;;;;;8.07;3.30;;;716.90;1587.20;;;;;;5037940;28;20022;-75
2021/09/09 12:14:40;;;;;;;9.25;3.17;;;716.80;1587.20;;;;;;5038239;28;20089;-78